Time;durP1;ratioP1;P1;durP2;ratioP2;P2;SDS_P1;SDS_P2;PMS_P1;PMS_P2;Temp;Humidity;BMP_temperature;BMP_pressure;BME280_temperature;BME280_humidity;BME280_pressure;Samples;Min_cycle;Max_cycle;Signal;HPM_P1;HPM_P2
2022/11/26 00:00:21;;;;;;;;;41.50;34.50;;;;;;;;5062133;28;61908;-77
2022/11/26 00:02:46;;;;;;;;;43.00;33.50;;;;;;;;5061375;28;61868;-77
2022/11/26 00:05:13;;;;;;;;;40.75;33.50;;;;;;;;5061842;28;61825;-77
2022/11/26 00:07:39;;;;;;;;;47.00;35.50;;;;;;;;5061380;28;61844;-77
2022/11/26 00:10:05;;;;;;;;;47.75;38.00;;;;;;;;5062378;28;61703;-77
2022/11/26 00:12:32;;;;;;;;;44.75;36.00;;;;;;;;5061163;28;61805;-77
2022/11/26 00:14:58;;;;;;;;;58.25;41.25;;;;;;;;5061834;28;61952;-77
2022/11/26 00:17:24;;;;;;;;;48.75;40.00;;;;;;;;5065070;28;61890;-77
2022/11/26 00:19:49;;;;;;;;;42.75;37.25;;;;;;;;5065513;28;61865;-77
2022/11/26 00:22:20;;;;;;;;;43.00;35.75;;;;;;;;5064514;28;62791;-77
2022/11/26 00:24:45;;;;;;;;;52.25;36.25;;;;;;;;5065534;28;61760;-77
2022/11/26 00:27:10;;;;;;;;;43.75;38.50;;;;;;;;5065422;28;61692;-77
2022/11/26 00:29:36;;;;;;;;;45.50;39.00;;;;;;;;5065544;28;61809;-77
2022/11/26 00:32:01;;;;;;;;;51.25;38.00;;;;;;;;5064778;28;61854;-78
2022/11/26 00:34:26;;;;;;;;;42.75;38.50;;;;;;;;5064758;28;62363;-77
2022/11/26 00:36:52;;;;;;;;;47.50;38.50;;;;;;;;5065133;28;62004;-77
2022/11/26 00:39:22;;;;;;;;;47.00;39.00;;;;;;;;5065260;28;62181;-77
2022/11/26 00:41:49;;;;;;;;;53.50;40.50;;;;;;;;5046581;28;64897;-77
2022/11/26 00:44:16;;;;;;;;;51.50;39.00;;;;;;;;5064887;28;61917;-77
2022/11/26 00:46:42;;;;;;;;;43.00;35.50;;;;;;;;5065295;28;61970;-77
2022/11/26 00:49:07;;;;;;;;;47.00;38.25;;;;;;;;5064764;28;62055;-77
2022/11/26 00:51:32;;;;;;;;;49.75;38.75;;;;;;;;5063879;28;61687;-77
2022/11/26 00:53:59;;;;;;;;;40.75;36.50;;;;;;;;5065134;28;61934;-77
2022/11/26 00:56:25;;;;;;;;;55.00;39.75;;;;;;;;5064744;28;61958;-77
2022/11/26 00:58:50;;;;;;;;;47.00;37.00;;;;;;;;5065011;28;61962;-77
2022/11/26 01:01:17;;;;;;;;;51.25;40.25;;;;;;;;5063061;28;62496;-77
2022/11/26 01:03:42;;;;;;;;;52.50;38.25;;;;;;;;5045495;28;62092;-77
2022/11/26 01:06:28;;;;;;;;;53.75;40.50;;;;;;;;5045388;28;61815;-77
2022/11/26 01:08:53;;;;;;;;;52.50;38.50;;;;;;;;5063475;28;61659;-77
2022/11/26 01:11:20;;;;;;;;;43.00;35.75;;;;;;;;5063080;28;61732;-77
2022/11/26 01:13:46;;;;;;;;;54.50;39.00;;;;;;;;5063143;28;61687;-77
2022/11/26 01:16:15;;;;;;;;;51.50;41.50;;;;;;;;5063843;28;61815;-77
2022/11/26 01:18:40;;;;;;;;;39.25;23.50;;;;;;;;5063111;28;62137;-77
2022/11/26 01:21:08;;;;;;;;;46.75;37.00;;;;;;;;5062287;28;62018;-77
2022/11/26 01:23:33;;;;;;;;;52.00;41.00;;;;;;;;5063544;28;61779;-77
2022/11/26 01:25:59;;;;;;;;;53.25;39.25;;;;;;;;5063235;28;61917;-77
2022/11/26 01:28:24;;;;;;;;;55.50;39.00;;;;;;;;5062988;28;62007;-77
2022/11/26 01:30:49;;;;;;;;;40.75;36.00;;;;;;;;5062754;28;61876;-77
2022/11/26 01:33:15;;;;;;;;;50.25;38.25;;;;;;;;5063107;28;61886;-77
2022/11/26 01:35:40;;;;;;;;;45.00;36.00;;;;;;;;5062550;28;62040;-77
2022/11/26 01:38:05;;;;;;;;;47.75;39.75;;;;;;;;5063191;28;61900;-77
2022/11/26 01:40:53;;;;;;;;;42.25;36.75;;;;;;;;5062634;28;61833;-77
2022/11/26 01:43:35;;;;;;;;;48.50;39.50;;;;;;;;5062777;28;62019;-77
2022/11/26 01:46:01;;;;;;;;;47.25;36.25;;;;;;;;5063209;28;61844;-77
2022/11/26 01:48:32;;;;;;;;;40.75;35.00;;;;;;;;5062870;28;62102;-77
2022/11/26 01:51:04;;;;;;;;;35.75;30.75;;;;;;;;5043870;28;63641;-77
2022/11/26 01:53:33;;;;;;;;;42.50;35.75;;;;;;;;5062969;28;61890;-78
2022/11/26 01:56:04;;;;;;;;;50.25;38.50;;;;;;;;5062760;28;62058;-77
2022/11/26 01:58:32;;;;;;;;;42.25;38.75;;;;;;;;5062562;28;62136;-77
2022/11/26 02:00:58;;;;;;;;;46.50;39.00;;;;;;;;5012185;28;1435763;-77
2022/11/26 02:03:23;;;;;;;;;44.50;36.25;;;;;;;;5063703;28;61675;-77
2022/11/26 02:06:01;;;;;;;;;41.00;32.25;;;;;;;;5063343;28;62126;-77
2022/11/26 02:08:28;;;;;;;;;41.00;34.00;;;;;;;;5063665;28;61930;-77
2022/11/26 02:10:54;;;;;;;;;42.00;35.75;;;;;;;;5062907;28;61922;-77
2022/11/26 02:13:19;;;;;;;;;42.00;34.75;;;;;;;;5063682;28;62027;-77
2022/11/26 02:15:58;;;;;;;;;45.75;36.25;;;;;;;;5063761;28;61842;-77
2022/11/26 02:18:25;;;;;;;;;31.00;27.00;;;;;;;;5063274;28;61905;-77
2022/11/26 02:21:07;;;;;;;;;43.50;31.25;;;;;;;;5062810;28;61848;-77
2022/11/26 02:23:41;;;;;;;;;41.25;32.50;;;;;;;;5063752;28;61936;-77
2022/11/26 02:26:25;;;;;;;;;37.75;32.25;;;;;;;;5044798;28;62260;-77
2022/11/26 02:29:13;;;;;;;;;38.00;31.00;;;;;;;;5063917;28;62099;-77
2022/11/26 02:31:44;;;;;;;;;28.75;25.75;;;;;;;;5063118;28;61932;-77
2022/11/26 02:34:14;;;;;;;;;39.00;27.75;;;;;;;;5062932;28;61887;-77
2022/11/26 02:36:44;;;;;;;;;30.50;27.50;;;;;;;;5063349;28;61814;-77
2022/11/26 02:39:11;;;;;;;;;29.00;24.50;;;;;;;;5062441;28;61811;-77
2022/11/26 02:41:47;;;;;;;;;33.00;29.75;;;;;;;;5044589;28;63797;-77
2022/11/26 02:44:14;;;;;;;;;33.75;29.75;;;;;;;;5063242;28;61854;-77
2022/11/26 02:46:40;;;;;;;;;31.75;26.25;;;;;;;;5045335;28;61732;-77
2022/11/26 02:49:07;;;;;;;;;29.50;22.75;;;;;;;;5044760;28;62067;-77
2022/11/26 02:51:32;;;;;;;;;24.75;22.00;;;;;;;;5062509;28;61922;-77
2022/11/26 02:53:58;;;;;;;;;23.25;21.00;;;;;;;;5063149;28;62027;-77
2022/11/26 02:56:25;;;;;;;;;31.50;21.00;;;;;;;;5044695;28;61986;-77
2022/11/26 02:58:52;;;;;;;;;27.00;20.50;;;;;;;;5063351;28;61995;-77
2022/11/26 03:01:28;;;;;;;;;30.25;22.00;;;;;;;;5061882;28;61854;-77
2022/11/26 03:03:54;;;;;;;;;24.00;19.25;;;;;;;;5044869;28;61941;-77
2022/11/26 03:06:20;;;;;;;;;29.25;23.00;;;;;;;;5062599;28;62054;-77
2022/11/26 03:08:45;;;;;;;;;27.25;21.00;;;;;;;;5062922;28;61891;-77
2022/11/26 03:11:11;;;;;;;;;22.50;21.00;;;;;;;;5062002;28;61902;-77
2022/11/26 03:13:36;;;;;;;;;26.00;19.00;;;;;;;;5062603;28;61779;-77
2022/11/26 03:16:03;;;;;;;;;24.00;22.00;;;;;;;;5062858;28;61908;-77
2022/11/26 03:18:28;;;;;;;;;20.75;19.00;;;;;;;;5062492;28;62156;-77
2022/11/26 03:20:54;;;;;;;;;22.50;14.75;;;;;;;;5061930;28;61905;-77
2022/11/26 03:23:19;;;;;;;;;25.00;22.00;;;;;;;;5062360;28;62058;-77
2022/11/26 03:25:44;;;;;;;;;35.00;23.50;;;;;;;;5062473;28;62017;-77
2022/11/26 03:28:09;;;;;;;;;29.25;23.25;;;;;;;;5062663;28;62141;-77
2022/11/26 03:30:35;;;;;;;;;21.75;17.50;;;;;;;;5062061;28;62035;-77
2022/11/26 03:33:00;;;;;;;;;24.25;22.25;;;;;;;;5062318;28;61847;-77
2022/11/26 03:35:25;;;;;;;;;21.25;20.50;;;;;;;;5062229;28;62204;-77
2022/11/26 03:37:50;;;;;;;;;22.25;21.75;;;;;;;;5062241;28;62487;-77
2022/11/26 03:40:16;;;;;;;;;21.25;20.50;;;;;;;;5061627;28;61813;-77
2022/11/26 03:42:42;;;;;;;;;28.50;22.75;;;;;;;;5062316;28;61727;-77
2022/11/26 03:45:07;;;;;;;;;22.00;18.75;;;;;;;;5062373;28;61987;-77
2022/11/26 03:47:33;;;;;;;;;28.50;21.75;;;;;;;;5062407;28;62016;-77
2022/11/26 03:49:58;;;;;;;;;26.50;22.50;;;;;;;;5061238;28;61751;-77
2022/11/26 03:52:23;;;;;;;;;17.00;13.50;;;;;;;;5061662;28;61712;-77
2022/11/26 03:54:49;;;;;;;;;33.00;26.00;;;;;;;;5062297;28;61956;-77
2022/11/26 03:57:14;;;;;;;;;24.25;18.00;;;;;;;;5062307;28;61715;-77
2022/11/26 03:59:39;;;;;;;;;33.00;27.00;;;;;;;;5061138;28;61912;-77
2022/11/26 04:02:05;;;;;;;;;30.75;27.00;;;;;;;;5062073;28;61800;-77
2022/11/26 04:04:30;;;;;;;;;23.50;21.50;;;;;;;;5061839;28;61763;-77
2022/11/26 04:06:55;;;;;;;;;23.00;20.75;;;;;;;;5061923;28;61719;-77
2022/11/26 04:09:21;;;;;;;;;27.75;23.75;;;;;;;;5061453;28;61868;-77
2022/11/26 04:11:46;;;;;;;;;30.25;26.50;;;;;;;;5061993;28;61887;-77
2022/11/26 04:14:11;;;;;;;;;31.25;27.50;;;;;;;;5043896;28;61661;-77
2022/11/26 04:16:36;;;;;;;;;32.75;23.25;;;;;;;;5061933;28;61770;-77
2022/11/26 04:19:02;;;;;;;;;30.75;22.00;;;;;;;;5061084;28;61727;-77
2022/11/26 04:21:27;;;;;;;;;28.75;21.50;;;;;;;;5061132;28;61898;-77
2022/11/26 04:23:52;;;;;;;;;31.50;23.00;;;;;;;;5062027;28;62001;-77
2022/11/26 04:26:17;;;;;;;;;32.50;25.25;;;;;;;;5062156;28;61741;-77
2022/11/26 04:28:43;;;;;;;;;37.50;24.75;;;;;;;;5060987;28;61754;-77
2022/11/26 04:31:08;;;;;;;;;35.25;22.25;;;;;;;;5061767;28;61914;-77
2022/11/26 04:33:33;;;;;;;;;33.25;26.00;;;;;;;;5043640;28;62241;-77
2022/11/26 04:35:59;;;;;;;;;27.25;22.75;;;;;;;;5043156;28;61954;-77
2022/11/26 04:38:24;;;;;;;;;32.25;22.25;;;;;;;;5061041;28;61923;-77
2022/11/26 04:40:49;;;;;;;;;26.50;23.00;;;;;;;;5061583;28;61985;-77
2022/11/26 04:43:14;;;;;;;;;23.75;21.00;;;;;;;;5061771;28;61802;-77
2022/11/26 04:45:40;;;;;;;;;25.00;22.50;;;;;;;;5061711;28;61958;-77
2022/11/26 04:48:05;;;;;;;;;25.50;23.25;;;;;;;;5060343;28;62559;-77
2022/11/26 04:50:30;;;;;;;;;31.00;22.50;;;;;;;;5060914;28;62022;-77
2022/11/26 04:52:56;;;;;;;;;23.75;21.00;;;;;;;;5061017;28;62186;-77
2022/11/26 04:55:21;;;;;;;;;20.50;20.00;;;;;;;;5061765;28;61747;-77
2022/11/26 04:57:47;;;;;;;;;27.75;26.00;;;;;;;;5060743;28;62937;-77
2022/11/26 05:00:13;;;;;;;;;23.50;21.25;;;;;;;;5060796;28;62447;-77
2022/11/26 05:02:38;;;;;;;;;17.50;17.00;;;;;;;;5063432;28;61820;-77
2022/11/26 05:05:03;;;;;;;;;22.50;19.50;;;;;;;;5064758;28;61989;-77
2022/11/26 05:07:29;;;;;;;;;21.25;13.25;;;;;;;;5063779;28;62200;-77
2022/11/26 05:09:54;;;;;;;;;37.00;22.50;;;;;;;;5064656;28;61916;-77
2022/11/26 05:12:19;;;;;;;;;28.75;22.25;;;;;;;;5064710;28;61874;-77
2022/11/26 05:14:44;;;;;;;;;30.50;25.50;;;;;;;;5064982;28;61886;-77
2022/11/26 05:17:10;;;;;;;;;33.25;23.00;;;;;;;;5064030;28;62089;-77
2022/11/26 05:19:35;;;;;;;;;28.75;21.50;;;;;;;;5064153;28;62030;-77
2022/11/26 05:22:00;;;;;;;;;33.00;23.75;;;;;;;;5064173;28;61695;-77
2022/11/26 05:24:25;;;;;;;;;26.25;21.75;;;;;;;;5064879;28;61852;-77
2022/11/26 05:26:51;;;;;;;;;24.25;24.00;;;;;;;;5063910;28;61856;-77
2022/11/26 05:29:16;;;;;;;;;21.50;20.25;;;;;;;;5064158;28;61696;-77
2022/11/26 05:31:41;;;;;;;;;30.50;24.00;;;;;;;;5046346;28;62064;-77
2022/11/26 05:34:06;;;;;;;;;27.75;24.25;;;;;;;;5064089;28;61763;-77
2022/11/26 05:36:32;;;;;;;;;25.25;21.75;;;;;;;;5063124;28;62613;-77
2022/11/26 05:38:57;;;;;;;;;29.50;27.25;;;;;;;;5046200;28;62097;-77
2022/11/26 05:41:22;;;;;;;;;32.25;24.75;;;;;;;;5064080;28;61802;-77
2022/11/26 05:43:52;;;;;;;;;35.00;28.00;;;;;;;;5064563;28;61897;-77
2022/11/26 05:46:19;;;;;;;;;28.00;27.00;;;;;;;;5063629;28;62701;-77
2022/11/26 05:48:44;;;;;;;;;34.25;28.25;;;;;;;;5063555;28;61940;-77
2022/11/26 05:51:09;;;;;;;;;32.50;31.25;;;;;;;;5063596;28;61994;-77
2022/11/26 05:53:34;;;;;;;;;34.25;23.25;;;;;;;;5064589;28;61682;-77
2022/11/26 05:56:00;;;;;;;;;33.25;26.50;;;;;;;;5063565;28;61930;-77
2022/11/26 05:58:25;;;;;;;;;32.75;29.25;;;;;;;;5063794;28;61969;-77
2022/11/26 06:00:51;;;;;;;;;39.00;29.00;;;;;;;;5063891;28;61901;-77
2022/11/26 06:03:16;;;;;;;;;35.50;28.50;;;;;;;;5063897;28;62039;-77
2022/11/26 06:05:41;;;;;;;;;30.25;28.00;;;;;;;;5063694;28;62711;-77
2022/11/26 06:08:07;;;;;;;;;29.75;27.50;;;;;;;;5063815;28;61755;-77
2022/11/26 06:10:32;;;;;;;;;32.00;29.75;;;;;;;;5063890;28;61655;-77
2022/11/26 06:12:57;;;;;;;;;35.75;30.50;;;;;;;;5063238;28;61844;-77
2022/11/26 06:15:23;;;;;;;;;28.00;26.00;;;;;;;;5062708;28;61739;-77
2022/11/26 06:17:48;;;;;;;;;47.50;31.25;;;;;;;;5063688;28;62076;-77
2022/11/26 06:20:13;;;;;;;;;32.50;30.00;;;;;;;;5063527;28;62223;-77
2022/11/26 06:22:39;;;;;;;;;34.75;28.75;;;;;;;;5063477;28;62001;-77
2022/11/26 06:25:09;;;;;;;;;37.50;32.25;;;;;;;;5063202;28;62372;-77
2022/11/26 06:27:35;;;;;;;;;40.00;32.00;;;;;;;;5063565;28;61723;-77
2022/11/26 06:30:01;;;;;;;;;31.75;30.00;;;;;;;;5045597;28;61928;-77
2022/11/26 06:32:27;;;;;;;;;33.00;32.00;;;;;;;;5063443;28;61687;-77
2022/11/26 06:34:53;;;;;;;;;38.50;31.75;;;;;;;;5062749;28;62744;-77
2022/11/26 06:37:18;;;;;;;;;38.00;33.50;;;;;;;;5063253;28;62084;-78
2022/11/26 06:39:43;;;;;;;;;37.75;32.00;;;;;;;;5063350;28;61798;-77
2022/11/26 06:42:08;;;;;;;;;32.25;27.00;;;;;;;;5063857;28;61837;-77
2022/11/26 06:44:34;;;;;;;;;42.75;34.50;;;;;;;;5062458;28;62806;-77
2022/11/26 06:47:00;;;;;;;;;40.50;31.50;;;;;;;;5063192;28;62031;-77
2022/11/26 06:49:25;;;;;;;;;41.00;36.75;;;;;;;;5063162;28;62147;-77
2022/11/26 06:51:51;;;;;;;;;51.50;39.75;;;;;;;;5062904;28;62010;-77
2022/11/26 06:54:17;;;;;;;;;36.75;34.00;;;;;;;;5062550;28;61914;-77
2022/11/26 06:56:42;;;;;;;;;42.50;34.75;;;;;;;;5062969;28;61998;-77
2022/11/26 06:59:07;;;;;;;;;39.25;35.50;;;;;;;;5044812;28;61914;-77
2022/11/26 07:01:32;;;;;;;;;39.25;28.50;;;;;;;;5062882;28;62198;-77
2022/11/26 07:03:58;;;;;;;;;41.50;36.00;;;;;;;;5062319;28;62618;-77
2022/11/26 07:06:24;;;;;;;;;46.00;38.25;;;;;;;;5062421;28;61928;-77
2022/11/26 07:08:50;;;;;;;;;50.75;39.50;;;;;;;;5062646;28;62077;-77
2022/11/26 07:11:16;;;;;;;;;44.75;39.75;;;;;;;;5062852;28;61803;-77
2022/11/26 07:13:41;;;;;;;;;46.00;37.00;;;;;;;;5043997;28;63725;-77
2022/11/26 07:16:07;;;;;;;;;51.25;36.75;;;;;;;;5062639;28;61785;-77
2022/11/26 07:18:32;;;;;;;;;40.25;36.00;;;;;;;;5062431;28;61882;-77
2022/11/26 07:21:03;;;;;;;;;36.75;33.25;;;;;;;;5062479;28;61671;-77
2022/11/26 07:23:28;;;;;;;;;40.50;33.00;;;;;;;;5061857;28;61769;-77
2022/11/26 07:25:56;;;;;;;;;42.50;33.75;;;;;;;;5061828;28;61902;-77
2022/11/26 07:28:22;;;;;;;;;40.25;35.75;;;;;;;;5062623;28;61752;-78
2022/11/26 07:30:47;;;;;;;;;40.25;30.75;;;;;;;;5044380;28;62090;-78
2022/11/26 07:33:12;;;;;;;;;34.00;30.00;;;;;;;;5061931;28;61830;-78
2022/11/26 07:35:37;;;;;;;;;31.75;25.50;;;;;;;;5062225;28;61895;-79
2022/11/26 07:38:03;;;;;;;;;33.00;28.00;;;;;;;;5062045;28;61717;-81
2022/11/26 07:40:28;;;;;;;;;27.50;22.00;;;;;;;;5062589;28;61837;-80
2022/11/26 07:42:53;;;;;;;;;24.25;15.50;;;;;;;;5043607;28;62385;-80
2022/11/26 07:45:18;;;;;;;;;19.25;11.25;;;;;;;;5061915;28;61916;-79
2022/11/26 07:47:44;;;;;;;;;14.00;11.25;;;;;;;;5062440;28;61892;-79
2022/11/26 07:50:09;;;;;;;;;7.50;7.50;;;;;;;;5062157;28;61652;-78
2022/11/26 07:52:34;;;;;;;;;9.75;5.00;;;;;;;;5061439;28;61924;-78
2022/11/26 07:55:00;;;;;;;;;10.00;8.50;;;;;;;;5044116;28;62244;-78
2022/11/26 07:57:25;;;;;;;;;14.00;8.25;;;;;;;;5062270;28;61912;-79
2022/11/26 07:59:50;;;;;;;;;9.50;8.00;;;;;;;;5061715;28;61829;-77
2022/11/26 08:02:16;;;;;;;;;8.75;8.75;;;;;;;;5061730;28;61828;-77
2022/11/26 08:04:41;;;;;;;;;12.75;9.00;;;;;;;;5062028;28;61814;-77
2022/11/26 08:07:06;;;;;;;;;13.50;9.00;;;;;;;;5061179;28;62055;-77
2022/11/26 08:09:32;;;;;;;;;11.75;9.25;;;;;;;;5062112;28;62172;-77
2022/11/26 08:11:57;;;;;;;;;14.50;12.75;;;;;;;;5061350;28;62705;-78
2022/11/26 08:14:22;;;;;;;;;23.75;13.75;;;;;;;;5060964;28;61729;-77
2022/11/26 08:16:47;;;;;;;;;14.00;13.25;;;;;;;;5062017;28;61726;-78
2022/11/26 08:19:13;;;;;;;;;18.00;12.25;;;;;;;;5060949;28;61747;-78
2022/11/26 08:21:39;;;;;;;;;13.25;10.50;;;;;;;;5060741;28;61892;-77
2022/11/26 08:24:05;;;;;;;;;17.50;15.75;;;;;;;;5060622;28;62327;-77
2022/11/26 08:26:30;;;;;;;;;23.50;20.75;;;;;;;;5060731;28;62146;-77
2022/11/26 08:28:56;;;;;;;;;18.50;12.50;;;;;;;;5060857;28;61919;-77
2022/11/26 08:31:23;;;;;;;;;26.25;20.50;;;;;;;;5060035;28;62101;-77
2022/11/26 08:33:48;;;;;;;;;17.25;14.25;;;;;;;;5061168;28;61877;-78
2022/11/26 08:36:14;;;;;;;;;16.00;11.75;;;;;;;;5060737;28;61679;-77
2022/11/26 08:38:39;;;;;;;;;18.50;13.25;;;;;;;;5062408;28;61730;-77
2022/11/26 08:41:06;;;;;;;;;12.75;12.75;;;;;;;;5064822;28;62893;-78
2022/11/26 08:43:33;;;;;;;;;12.25;9.50;;;;;;;;5064046;28;61828;-77
2022/11/26 08:45:58;;;;;;;;;10.00;8.00;;;;;;;;5065126;28;61944;-77
2022/11/26 08:48:24;;;;;;;;;11.50;9.25;;;;;;;;5064923;28;61762;-77
2022/11/26 08:50:50;;;;;;;;;16.00;9.75;;;;;;;;5064576;28;61696;-77
2022/11/26 08:53:15;;;;;;;;;15.25;12.75;;;;;;;;5064365;28;61800;-82
2022/11/26 08:55:41;;;;;;;;;12.25;7.75;;;;;;;;5065330;28;61845;-78
2022/11/26 08:58:06;;;;;;;;;9.25;8.25;;;;;;;;5065138;28;61847;-78
2022/11/26 09:00:32;;;;;;;;;21.75;9.00;;;;;;;;5063905;28;62463;-78
2022/11/26 09:02:57;;;;;;;;;12.50;11.00;;;;;;;;5065009;28;62141;-78
2022/11/26 09:05:22;;;;;;;;;13.00;8.50;;;;;;;;5064710;28;62103;-79
2022/11/26 09:07:47;;;;;;;;;13.25;9.00;;;;;;;;5065058;28;61944;-78
2022/11/26 09:10:13;;;;;;;;;18.50;12.25;;;;;;;;5045841;28;63964;-78
2022/11/26 09:12:38;;;;;;;;;12.50;9.00;;;;;;;;5046306;28;61966;-78
2022/11/26 09:15:04;;;;;;;;;13.00;11.00;;;;;;;;5064886;28;61820;-78
2022/11/26 09:17:29;;;;;;;;;12.25;10.00;;;;;;;;5064926;28;61826;-78
2022/11/26 09:19:55;;;;;;;;;12.00;9.75;;;;;;;;5063924;28;62039;-78
2022/11/26 09:22:21;;;;;;;;;9.00;9.00;;;;;;;;5064589;28;61730;-78
2022/11/26 09:24:46;;;;;;;;;12.50;11.25;;;;;;;;5064582;28;61829;-78
2022/11/26 09:27:11;;;;;;;;;15.25;11.50;;;;;;;;5064552;28;61696;-78
2022/11/26 09:29:37;;;;;;;;;15.75;12.75;;;;;;;;5063683;28;62193;-78
2022/11/26 09:32:02;;;;;;;;;16.75;11.75;;;;;;;;5064567;28;62127;-78
2022/11/26 09:34:27;;;;;;;;;11.00;10.00;;;;;;;;5064344;28;61915;-78
2022/11/26 09:36:53;;;;;;;;;14.75;13.25;;;;;;;;5064093;28;62046;-78
2022/11/26 09:39:18;;;;;;;;;14.25;13.50;;;;;;;;5064588;28;62644;-78
2022/11/26 09:41:46;;;;;;;;;14.25;12.75;;;;;;;;5063875;28;61835;-78
2022/11/26 09:44:14;;;;;;;;;18.50;15.00;;;;;;;;5046342;28;61834;-78
2022/11/26 09:46:59;;;;;;;;;14.75;13.75;;;;;;;;5064331;28;62209;-78
2022/11/26 09:49:24;;;;;;;;;16.25;13.75;;;;;;;;5062912;28;61883;-78
2022/11/26 09:51:51;;;;;;;;;17.00;14.50;;;;;;;;5063520;28;61916;-78
2022/11/26 09:54:19;;;;;;;;;15.25;11.75;;;;;;;;5064118;28;61925;-78
2022/11/26 09:56:45;;;;;;;;;25.25;18.00;;;;;;;;5063561;28;62489;-78
2022/11/26 09:59:16;;;;;;;;;21.50;12.25;;;;;;;;5063513;28;61845;-78
2022/11/26 10:01:41;;;;;;;;;19.50;15.00;;;;;;;;5064113;28;61857;-78
2022/11/26 10:04:08;;;;;;;;;18.50;12.00;;;;;;;;5064150;28;62254;-78
2022/11/26 10:06:44;;;;;;;;;14.25;12.00;;;;;;;;5063712;28;62008;-78
2022/11/26 10:09:16;;;;;;;;;14.00;13.00;;;;;;;;5063355;28;61913;-78
2022/11/26 10:11:41;;;;;;;;;19.75;15.50;;;;;;;;5063771;28;61751;-78
2022/11/26 10:14:22;;;;;;;;;18.50;16.00;;;;;;;;5063145;28;61880;-78
2022/11/26 10:16:54;;;;;;;;;18.75;14.75;;;;;;;;5061890;28;61923;-78
2022/11/26 10:19:28;;;;;;;;;23.00;15.00;;;;;;;;5057740;28;62024;-78
2022/11/26 10:21:57;;;;;;;;;29.00;19.00;;;;;;;;5051825;28;61917;-78
2022/11/26 10:24:31;;;;;;;;;16.50;14.75;;;;;;;;5062264;28;61741;-78
2022/11/26 10:27:00;;;;;;;;;24.25;17.50;;;;;;;;5059524;28;62063;-78
2022/11/26 10:29:29;;;;;;;;;21.50;16.00;;;;;;;;5061569;28;63175;-78
2022/11/26 10:32:00;;;;;;;;;35.75;28.00;;;;;;;;5052356;28;62084;-78
2022/11/26 10:34:41;;;;;;;;;21.75;16.50;;;;;;;;5061795;28;62143;-78
2022/11/26 10:37:07;;;;;;;;;19.00;17.00;;;;;;;;5076453;27;62044;-78
2022/11/26 10:39:32;;;;;;;;;19.00;18.50;;;;;;;;5051352;28;63798;-78
2022/11/26 10:42:02;;;;;;;;;20.75;14.00;;;;;;;;5061168;28;61834;-78
2022/11/26 10:44:35;;;;;;;;;17.00;14.25;;;;;;;;5063378;28;61879;-78
2022/11/26 10:47:33;;;;;;;;;21.75;18.50;;;;;;;;5063593;28;61856;-78
2022/11/26 10:50:01;;;;;;;;;16.75;15.00;;;;;;;;5028232;28;62072;-78
2022/11/26 10:52:27;;;;;;;;;28.25;22.00;;;;;;;;5019167;28;62102;-78
2022/11/26 10:55:06;;;;;;;;;15.50;14.50;;;;;;;;5018378;28;62843;-78
2022/11/26 10:57:32;;;;;;;;;23.00;20.00;;;;;;;;5026254;28;61886;-78
2022/11/26 10:59:58;;;;;;;;;22.75;18.50;;;;;;;;5003008;28;64139;-78
2022/11/26 11:02:43;;;;;;;;;19.75;17.00;;;;;;;;5026724;28;61895;-80
2022/11/26 11:05:08;;;;;;;;;21.75;17.25;;;;;;;;5027778;28;61864;-81
2022/11/26 11:07:36;;;;;;;;;20.00;18.25;;;;;;;;5028636;28;62211;-81
2022/11/26 11:10:08;;;;;;;;;23.00;18.50;;;;;;;;5011992;28;63473;-81
2022/11/26 11:12:34;;;;;;;;;26.25;23.75;;;;;;;;5027171;28;62092;-81
2022/11/26 11:15:17;;;;;;;;;23.50;18.00;;;;;;;;5030964;28;61952;-79
2022/11/26 11:17:44;;;;;;;;;17.50;14.75;;;;;;;;5030654;28;61951;-81
2022/11/26 11:20:15;;;;;;;;;14.50;12.50;;;;;;;;5027455;28;61917;-80
2022/11/26 11:22:41;;;;;;;;;19.00;13.00;;;;;;;;5029855;28;62066;-82
2022/11/26 11:25:24;;;;;;;;;16.75;12.75;;;;;;;;5034629;28;61820;-79
2022/11/26 11:27:50;;;;;;;;;23.50;17.50;;;;;;;;5058027;28;61960;-79
2022/11/26 11:30:25;;;;;;;;;27.75;21.50;;;;;;;;5059936;28;61856;-78
2022/11/26 11:32:53;;;;;;;;;25.50;20.75;;;;;;;;5059282;28;61978;-80
2022/11/26 11:35:18;;;;;;;;;28.50;21.25;;;;;;;;5059001;28;62457;-80
2022/11/26 11:37:48;;;;;;;;;26.50;20.50;;;;;;;;5058393;28;62738;-80
2022/11/26 11:40:17;;;;;;;;;31.25;23.25;;;;;;;;5057320;28;61836;-81
2022/11/26 11:42:47;;;;;;;;;20.25;20.00;;;;;;;;5032731;28;61843;-80
2022/11/26 11:45:20;;;;;;;;;25.75;16.25;;;;;;;;5058953;28;61997;-80
2022/11/26 11:47:50;;;;;;;;;27.00;20.75;;;;;;;;5059285;28;61997;-80
2022/11/26 11:50:21;;;;;;;;;22.25;19.75;;;;;;;;5058794;28;61915;-81
2022/11/26 11:52:53;;;;;;;;;69.50;54.00;;;;;;;;5059291;28;62035;-80
2022/11/26 11:55:18;;;;;;;;;24.75;21.00;;;;;;;;5062097;28;61904;-80
2022/11/26 11:57:43;;;;;;;;;25.50;20.50;;;;;;;;5062415;28;61855;-80
2022/11/26 12:00:12;;;;;;;;;30.75;23.75;;;;;;;;5061272;28;62628;-80
2022/11/26 12:02:54;;;;;;;;;30.50;22.50;;;;;;;;5062028;28;62064;-80
2022/11/26 12:05:41;;;;;;;;;20.50;17.50;;;;;;;;5061613;28;62060;-79
2022/11/26 12:08:19;;;;;;;;;29.75;21.75;;;;;;;;5061508;28;61932;-80
2022/11/26 12:11:10;;;;;;;;;29.25;18.75;;;;;;;;5062048;28;62722;-80
2022/11/26 12:13:40;;;;;;;;;30.00;23.00;;;;;;;;5041314;28;61908;-80
2022/11/26 12:16:08;;;;;;;;;31.75;22.25;;;;;;;;5065595;28;61896;-80
2022/11/26 12:18:41;;;;;;;;;26.00;20.75;;;;;;;;5065195;28;61727;-79
2022/11/26 12:21:08;;;;;;;;;27.50;19.75;;;;;;;;5064372;28;61877;-78
2022/11/26 12:23:46;;;;;;;;;32.00;20.75;;;;;;;;5065051;28;62334;-78
2022/11/26 12:26:27;;;;;;;;;28.00;25.75;;;;;;;;5065249;28;61964;-79
2022/11/26 12:28:55;;;;;;;;;29.50;24.00;;;;;;;;5065538;28;61729;-79
2022/11/26 12:31:39;;;;;;;;;30.00;24.00;;;;;;;;5064686;28;62146;-78
2022/11/26 12:34:11;;;;;;;;;30.50;25.50;;;;;;;;5062927;28;62480;-78
2022/11/26 12:36:53;;;;;;;;;25.25;18.25;;;;;;;;5062541;28;61933;-78
2022/11/26 12:39:27;;;;;;;;;25.25;23.75;;;;;;;;5062422;28;62081;-78
2022/11/26 12:41:59;;;;;;;;;26.50;18.75;;;;;;;;5062117;28;61953;-77
2022/11/26 12:44:32;;;;;;;;;23.00;20.00;;;;;;;;5062152;28;62184;-78
2022/11/26 12:47:05;;;;;;;;;22.00;17.25;;;;;;;;5061734;28;61877;-78
2022/11/26 12:49:36;;;;;;;;;26.00;21.00;;;;;;;;5062255;28;62031;-81
2022/11/26 12:52:20;;;;;;;;;16.75;14.50;;;;;;;;5061676;28;62688;-81
2022/11/26 12:55:08;;;;;;;;;17.50;15.75;;;;;;;;5062469;28;61797;-79
2022/11/26 12:57:37;;;;;;;;;17.75;16.00;;;;;;;;5060824;28;61711;-78
2022/11/26 13:00:20;;;;;;;;;14.00;12.50;;;;;;;;5041706;28;62124;-80
2022/11/26 13:02:47;;;;;;;;;21.75;15.75;;;;;;;;5040490;28;63042;-83
2022/11/26 13:05:18;;;;;;;;;18.50;12.50;;;;;;;;5041570;28;61975;-79
2022/11/26 13:08:02;;;;;;;;;15.50;14.25;;;;;;;;5041006;28;61734;-80
2022/11/26 13:10:27;;;;;;;;;25.25;20.75;;;;;;;;5042695;28;61720;-79
2022/11/26 13:13:01;;;;;;;;;15.50;13.75;;;;;;;;5041459;28;61923;-79
2022/11/26 13:15:32;;;;;;;;;18.00;13.50;;;;;;;;5041402;28;61879;-79
2022/11/26 13:17:59;;;;;;;;;14.50;13.00;;;;;;;;5041917;28;61897;-79
2022/11/26 13:20:33;;;;;;;;;18.00;14.75;;;;;;;;5042594;28;61962;-79
2022/11/26 13:23:14;;;;;;;;;14.25;13.25;;;;;;;;5039415;28;64643;-80
2022/11/26 13:25:46;;;;;;;;;13.75;8.75;;;;;;;;5044560;28;61724;-80
2022/11/26 13:28:30;;;;;;;;;16.00;14.00;;;;;;;;5043414;28;61734;-81
2022/11/26 13:31:14;;;;;;;;;9.75;8.25;;;;;;;;5042014;28;61972;-81
2022/11/26 13:33:58;;;;;;;;;14.25;10.00;;;;;;;;5042005;28;62698;-81
2022/11/26 13:36:32;;;;;;;;;16.00;12.50;;;;;;;;5042416;28;61918;-82
2022/11/26 13:39:20;;;;;;;;;10.00;10.00;;;;;;;;5042209;28;62317;-82
2022/11/26 13:41:54;;;;;;;;;13.25;10.00;;;;;;;;5041321;28;61935;-79
2022/11/26 13:44:35;;;;;;;;;17.25;12.50;;;;;;;;5041504;28;62607;-79
2022/11/26 13:47:04;;;;;;;;;17.75;12.75;;;;;;;;5055336;28;62210;-78
2022/11/26 13:49:43;;;;;;;;;10.00;9.00;;;;;;;;5039768;28;61862;-78
2022/11/26 13:52:25;;;;;;;;;16.50;11.00;;;;;;;;5040431;28;61892;-78
2022/11/26 13:54:56;;;;;;;;;19.00;16.75;;;;;;;;5040542;28;61950;-79
2022/11/26 13:57:24;;;;;;;;;16.00;14.25;;;;;;;;5040851;28;62031;-78
2022/11/26 13:59:51;;;;;;;;;11.00;11.00;;;;;;;;5046841;28;61941;-78
2022/11/26 14:02:32;;;;;;;;;12.00;11.00;;;;;;;;5043107;28;61971;-78
2022/11/26 14:04:59;;;;;;;;;17.50;14.00;;;;;;;;5060156;28;63196;-78
2022/11/26 14:07:24;;;;;;;;;14.00;11.00;;;;;;;;5059430;28;61837;-78
2022/11/26 14:09:51;;;;;;;;;11.50;7.50;;;;;;;;5060775;28;61968;-78
2022/11/26 14:12:17;;;;;;;;;13.00;12.00;;;;;;;;5061001;28;61719;-78
2022/11/26 14:14:44;;;;;;;;;17.50;12.00;;;;;;;;5060207;28;61966;-78
2022/11/26 14:17:11;;;;;;;;;18.75;12.75;;;;;;;;5042261;28;61928;-78
2022/11/26 14:19:40;;;;;;;;;19.75;15.75;;;;;;;;5042146;28;62012;-78
2022/11/26 14:22:14;;;;;;;;;15.50;11.75;;;;;;;;5059408;28;62065;-78
2022/11/26 14:24:49;;;;;;;;;19.50;12.75;;;;;;;;5059499;28;62054;-79